Time;durP1;ratioP1;P1;durP2;ratioP2;P2;SDS_P1;SDS_P2;PMS_P1;PMS_P2;Temp;Humidity;BMP_temperature;BMP_pressure;BME280_temperature;BME280_humidity;BME280_pressure;Samples;Min_cycle;Max_cycle;Signal;HPM_P1;HPM_P2
2024/03/27 00:01:29;;;;;;;5.55;1.27;;;;;;;3.56;79.24;98659.81;5085755;28;20099;-66
2024/03/27 00:03:54;;;;;;;1.58;1.48;;;;;;;3.59;79.18;98653.84;5085599;28;20028;-66
2024/03/27 00:06:21;;;;;;;1.27;1.17;;;;;;;3.54;79.46;98646.19;5085173;28;20123;-65
2024/03/27 00:08:46;;;;;;;1.52;1.42;;;;;;;3.56;79.34;98649.56;5085625;28;20030;-67
2024/03/27 00:11:12;;;;;;;1.02;1.02;;;;;;;3.53;79.42;98649.59;5085701;28;20048;-67
2024/03/27 00:13:37;;;;;;;1.10;1.00;;;;;;;3.52;79.35;98632.50;5085646;28;20031;-67
2024/03/27 00:16:03;;;;;;;1.52;1.42;;;;;;;3.51;79.44;98648.78;5085294;28;20154;-66
2024/03/27 00:18:28;;;;;;;1.33;0.95;;;;;;;3.44;79.61;98637.69;5085303;28;20108;-67
2024/03/27 00:20:54;;;;;;;3.28;1.27;;;;;;;3.37;79.49;98612.09;5085374;28;20027;-66
2024/03/27 00:23:19;;;;;;;0.70;0.70;;;;;;;3.41;79.77;98627.47;5085420;28;20128;-66
2024/03/27 00:25:45;;;;;;;3.35;2.22;;;;;;;3.42;79.74;98625.75;5085161;28;20456;-67
2024/03/27 00:28:10;;;;;;;1.08;1.00;;;;;;;3.42;79.69;98623.19;5085222;28;20028;-66
2024/03/27 00:30:35;;;;;;;0.80;0.75;;;;;;;3.45;79.88;98623.16;5083913;28;20020;-67
2024/03/27 00:33:02;;;;;;;3.53;1.90;;;;;;;3.41;79.92;98616.34;5085579;28;20040;-67
2024/03/27 00:35:27;;;;;;;1.80;1.38;;;;;;;3.42;80.30;98625.75;5085239;28;20047;-66
2024/03/27 00:37:53;;;;;;;1.95;1.33;;;;;;;3.30;80.17;98594.22;5085401;28;20020;-67
2024/03/27 00:40:19;;;;;;;2.55;1.75;;;;;;;3.39;80.30;98616.34;5085319;28;20024;-66
2024/03/27 00:42:46;;;;;;;1.00;0.88;;;;;;;3.41;80.37;98619.78;5085153;28;20028;-67
2024/03/27 00:45:13;;;;;;;1.63;1.52;;;;;;;3.35;80.56;98604.44;5066869;28;20039;-67
2024/03/27 00:47:38;;;;;;;1.75;1.65;;;;;;;3.39;80.74;98607.78;5085213;28;20022;-66
2024/03/27 00:50:03;;;;;;;2.00;1.90;;;;;;;3.37;80.73;98601.84;5085113;28;20042;-66
2024/03/27 00:52:29;;;;;;;1.73;1.23;;;;;;;3.37;80.49;98594.97;5084974;28;20072;-66
2024/03/27 00:54:54;;;;;;;0.80;0.80;;;;;;;3.39;80.87;98588.13;5085120;28;20017;-66
2024/03/27 00:57:20;;;;;;;2.05;1.88;;;;;;;3.42;80.89;98590.66;5085045;28;20027;-66
2024/03/27 00:59:46;;;;;;;7.93;3.83;;;;;;;3.38;81.05;98573.63;5083668;28;20084;-66
2024/03/27 01:02:11;;;;;;;3.45;2.45;;;;;;;3.39;81.03;98575.31;5085040;28;20043;-66
2024/03/27 01:04:37;;;;;;;2.42;1.20;;;;;;;3.44;80.68;98578.69;5084784;28;20024;-66
2024/03/27 01:07:02;;;;;;;1.27;1.17;;;;;;;3.44;80.68;98553.03;5084807;28;20097;-66
2024/03/27 01:09:28;;;;;;;5.82;2.83;;;;;;;3.43;81.02;98553.91;5085111;28;20039;-65
2024/03/27 01:11:53;;;;;;;1.30;1.20;;;;;;;3.41;80.92;98547.06;5084519;28;20082;-66
2024/03/27 01:14:18;;;;;;;2.33;2.13;;;;;;;3.43;81.21;98546.22;5085045;28;20025;-66
2024/03/27 01:16:44;;;;;;;2.42;2.22;;;;;;;3.40;81.26;98559.06;5084732;28;20024;-66
2024/03/27 01:19:09;;;;;;;1.95;1.45;;;;;;;3.44;81.24;98550.47;5084864;28;20082;-67
2024/03/27 01:21:35;;;;;;;3.70;2.10;;;;;;;3.51;81.04;98548.72;5084630;28;20024;-66
2024/03/27 01:24:00;;;;;;;1.15;1.13;;;;;;;3.45;80.99;98541.91;5084641;28;20020;-67
2024/03/27 01:26:25;;;;;;;2.17;1.52;;;;;;;3.46;81.37;98548.75;5084868;28;20450;-67
2024/03/27 01:28:51;;;;;;;2.88;1.33;;;;;;;3.47;81.56;98552.16;5084600;28;20033;-65
2024/03/27 01:31:16;;;;;;;3.38;2.72;;;;;;;3.52;81.14;98552.97;5084695;28;20021;-66
2024/03/27 01:33:41;;;;;;;2.10;1.52;;;;;;;3.46;81.33;98528.22;5084810;28;20033;-66
2024/03/27 01:36:07;;;;;;;1.45;1.35;;;;;;;3.49;81.32;98529.03;5084516;28;20096;-65
2024/03/27 01:38:32;;;;;;;1.50;1.40;;;;;;;3.49;81.24;98545.28;5083354;28;20028;-66
2024/03/27 01:40:58;;;;;;;3.70;2.53;;;;;;;3.46;81.59;98541.06;5084723;28;20495;-67
2024/03/27 01:43:23;;;;;;;2.83;2.58;;;;;;;3.46;81.71;98533.34;5084553;28;20528;-66
2024/03/27 01:45:48;;;;;;;2.13;1.25;;;;;;;3.43;81.53;98533.38;5084632;28;20021;-66
2024/03/27 01:48:14;;;;;;;9.45;2.42;;;;;;;3.47;81.72;98529.91;5084597;28;20154;-66
2024/03/27 01:50:40;;;;;;;1.80;1.00;;;;;;;3.43;81.82;98512.00;5084444;28;20338;-66
2024/03/27 01:53:09;;;;;;;1.40;1.23;;;;;;;3.47;81.63;98522.22;5084567;28;20029;-67
2024/03/27 01:55:36;;;;;;;4.40;1.67;;;;;;;3.49;81.82;98524.78;5084429;28;20012;-66
2024/03/27 01:58:03;;;;;;;5.22;2.78;;;;;;;3.47;81.80;98501.69;5088178;28;20029;-66
2024/03/27 02:00:28;;;;;;;2.97;1.92;;;;;;;3.42;81.81;98495.75;5088372;28;20043;-66
2024/03/27 02:02:54;;;;;;;1.92;1.77;;;;;;;3.49;81.90;98511.94;5088141;28;20487;-67
2024/03/27 02:05:20;;;;;;;1.08;0.98;;;;;;;3.53;81.71;98505.91;5087837;28;20040;-66
2024/03/27 02:07:45;;;;;;;4.53;3.33;;;;;;;3.50;81.95;98516.19;5088275;28;20024;-67
2024/03/27 02:10:11;;;;;;;4.15;2.03;;;;;;;3.50;82.07;98494.84;5086918;28;20020;-66
2024/03/27 02:12:40;;;;;;;2.15;1.25;;;;;;;3.44;82.02;98501.72;5088263;28;20036;-67
2024/03/27 02:15:06;;;;;;;7.57;2.50;;;;;;;3.50;82.08;98510.22;5088001;28;20047;-66
2024/03/27 02:17:32;;;;;;;2.28;1.30;;;;;;;3.53;82.03;98516.16;5087937;28;20028;-67
2024/03/27 02:19:57;;;;;;;2.00;1.90;;;;;;;3.50;82.17;98490.53;5088100;28;20055;-67
2024/03/27 02:22:24;;;;;;;2.38;2.17;;;;;;;3.53;82.00;98508.47;5087674;28;20048;-66
2024/03/27 02:25:14;;;;;;;3.22;2.33;;;;;;;3.50;82.16;98500.81;5069742;28;20143;-66
2024/03/27 02:27:40;;;;;;;1.40;1.30;;;;;;;3.51;81.95;98497.38;5088139;28;20093;-66
2024/03/27 02:30:06;;;;;;;0.93;0.88;;;;;;;3.54;82.24;98486.22;5087597;28;20017;-66
2024/03/27 02:32:31;;;;;;;6.72;1.55;;;;;;;3.50;82.46;98495.66;5087598;28;20020;-66
2024/03/27 02:34:56;;;;;;;2.83;1.88;;;;;;;3.52;82.38;98493.94;5087711;28;20020;-67
2024/03/27 02:37:22;;;;;;;3.10;1.38;;;;;;;3.52;82.11;98485.38;5087589;28;20024;-66
2024/03/27 02:39:47;;;;;;;1.30;1.20;;;;;;;3.51;82.18;98497.38;5087578;28;20471;-66
2024/03/27 02:42:12;;;;;;;2.58;2.35;;;;;;;3.55;82.32;98487.91;5086370;28;20024;-66
2024/03/27 02:44:38;;;;;;;2.13;1.63;;;;;;;3.52;82.42;98486.25;5087558;28;20025;-66
2024/03/27 02:47:03;;;;;;;7.57;3.10;;;;;;;3.50;82.59;98482.84;5087877;28;20384;-67
2024/03/27 02:49:29;;;;;;;2.47;1.65;;;;;;;3.51;82.63;98468.31;5087393;28;20082;-66
2024/03/27 02:51:54;;;;;;;2.15;1.95;;;;;;;3.54;82.71;98469.13;5087261;28;20051;-67
2024/03/27 02:54:19;;;;;;;5.00;3.15;;;;;;;3.56;82.43;98469.13;5087535;28;20023;-66
2024/03/27 02:56:45;;;;;;;16.60;2.47;;;;;;;3.55;82.87;98463.13;5087477;28;20028;-66
2024/03/27 02:59:10;;;;;;;2.25;2.05;;;;;;;3.61;82.62;98469.06;5086988;28;20061;-66
2024/03/27 03:01:35;;;;;;;4.20;2.15;;;;;;;3.57;82.64;98455.41;5087111;28;20477;-66
2024/03/27 03:04:01;;;;;;;0.85;0.82;;;;;;;3.63;82.65;98459.59;5086988;28;20107;-65
2024/03/27 03:06:26;;;;;;;3.13;1.90;;;;;;;3.63;82.62;98454.47;5086519;28;20083;-66
2024/03/27 03:08:51;;;;;;;4.15;2.78;;;;;;;3.60;82.88;98450.25;5087030;28;20044;-66
2024/03/27 03:11:17;;;;;;;1.90;1.75;;;;;;;3.65;82.78;98458.75;5086865;28;20111;-67
2024/03/27 03:13:43;;;;;;;7.18;2.10;;;;;;;3.66;82.72;98460.44;5086853;28;20046;-66
2024/03/27 03:16:09;;;;;;;3.38;1.45;;;;;;;3.62;82.77;98455.34;5068784;28;20020;-65
2024/03/27 03:18:35;;;;;;;1.40;1.30;;;;;;;3.68;82.62;98447.56;5086941;28;20028;-66
2024/03/27 03:21:04;;;;;;;2.20;1.67;;;;;;;3.68;82.50;98456.13;5086805;28;20028;-66
2024/03/27 03:23:30;;;;;;;1.70;1.60;;;;;;;3.72;82.27;98449.25;5086563;28;20083;-67
2024/03/27 03:25:55;;;;;;;1.98;1.88;;;;;;;3.70;82.68;98445.84;5068585;28;20025;-66
2024/03/27 03:28:21;;;;;;;3.67;3.38;;;;;;;3.72;82.68;98444.97;5086727;28;20089;-67
2024/03/27 03:30:46;;;;;;;5.03;3.10;;;;;;;3.77;82.50;98441.50;5068511;28;20028;-66
2024/03/27 03:33:12;;;;;;;3.40;2.13;;;;;;;3.66;82.45;98421.94;5085016;28;20028;-66
2024/03/27 03:35:37;;;;;;;3.25;2.88;;;;;;;3.78;82.34;98438.06;5086483;28;20103;-67
2024/03/27 03:38:03;;;;;;;2.00;1.90;;;;;;;3.78;82.42;98427.78;5085927;28;20021;-66
2024/03/27 03:40:29;;;;;;;4.13;2.92;;;;;;;3.81;82.21;98432.88;5086538;28;20534;-66
2024/03/27 03:42:54;;;;;;;3.15;2.88;;;;;;;3.80;82.13;98423.50;5086100;28;20043;-66
2024/03/27 03:45:20;;;;;;;2.00;1.80;;;;;;;3.81;82.16;98418.34;5086106;28;20025;-67
2024/03/27 03:47:45;;;;;;;5.57;3.83;;;;;;;3.83;82.12;98423.44;5086250;28;20032;-66
2024/03/27 03:50:10;;;;;;;4.60;4.18;;;;;;;3.81;81.98;98418.34;5086292;28;20024;-66
2024/03/27 03:52:36;;;;;;;5.63;3.75;;;;;;;3.83;81.96;98423.44;5085868;28;20020;-67
2024/03/27 03:55:01;;;;;;;2.42;1.80;;;;;;;3.68;81.86;98398.81;5084923;28;20024;-68
2024/03/27 03:57:27;;;;;;;2.38;2.00;;;;;;;3.83;82.22;98418.31;5085998;28;20031;-66
2024/03/27 03:59:52;;;;;;;4.53;2.05;;;;;;;3.83;82.02;98413.19;5085761;28;20420;-66
2024/03/27 04:02:18;;;;;;;8.30;3.03;;;;;;;3.83;81.74;98421.72;5085954;28;20024;-66
2024/03/27 04:04:43;;;;;;;5.13;3.53;;;;;;;3.80;81.98;98411.50;5085688;28;20040;-66
2024/03/27 04:07:08;;;;;;;2.22;2.03;;;;;;;3.82;81.93;98398.63;5085516;28;20052;-67
2024/03/27 04:09:34;;;;;;;5.50;3.30;;;;;;;3.76;81.78;98394.44;5085703;28;20025;-66
2024/03/27 04:11:59;;;;;;;2.83;2.15;;;;;;;3.79;81.89;98406.38;5085628;28;20088;-67
2024/03/27 04:14:24;;;;;;;11.68;4.00;;;;;;;3.72;82.08;98403.88;5085668;28;20023;-66
2024/03/27 04:16:50;;;;;;;2.67;1.40;;;;;;;3.71;82.11;98383.38;5085668;28;20028;-66
2024/03/27 04:19:15;;;;;;;3.55;2.80;;;;;;;3.76;82.13;98391.00;5084789;28;20055;-66
2024/03/27 04:21:40;;;;;;;4.68;2.88;;;;;;;3.78;81.98;98402.13;5085344;28;20025;-66
2024/03/27 04:24:07;;;;;;;1.40;1.30;;;;;;;3.77;82.09;98397.88;5085418;28;20066;-66
2024/03/27 04:26:32;;;;;;;4.38;2.92;;;;;;;3.79;82.04;98393.53;5085324;28;20555;-67
2024/03/27 04:28:58;;;;;;;2.30;1.88;;;;;;;3.76;81.94;98394.44;5085307;28;20024;-66
2024/03/27 04:31:23;;;;;;;4.70;3.00;;;;;;;3.75;81.77;98397.88;5085343;28;20056;-66
2024/03/27 04:33:49;;;;;;;4.57;4.07;;;;;;;3.78;81.83;98410.69;5085162;28;20081;-66
2024/03/27 04:36:16;;;;;;;4.75;3.63;;;;;;;3.67;82.17;98380.03;5085311;28;20021;-67
2024/03/27 04:38:41;;;;;;;8.00;4.47;;;;;;;3.75;82.03;98390.19;5085062;28;20021;-68
2024/03/27 04:41:09;;;;;;;1.67;1.58;;;;;;;3.72;82.14;98378.22;5083706;28;20084;-66
2024/03/27 04:43:35;;;;;;;6.20;3.75;;;;;;;3.69;82.01;98380.84;5085111;28;20025;-67
2024/03/27 04:46:00;;;;;;;2.53;2.33;;;;;;;3.72;82.10;98383.34;5085200;28;20553;-66
2024/03/27 04:48:26;;;;;;;2.10;1.27;;;;;;;3.67;82.07;98374.91;5083694;28;20024;-67
2024/03/27 04:50:51;;;;;;;10.18;2.17;;;;;;;3.72;82.18;98379.97;5084949;28;20052;-66
2024/03/27 04:53:16;;;;;;;3.25;1.38;;;;;;;3.69;82.25;98387.69;5084830;28;20532;-67
2024/03/27 04:55:41;;;;;;;3.25;2.45;;;;;;;3.68;82.07;98378.28;5085156;28;20039;-66
2024/03/27 04:58:07;;;;;;;4.95;3.85;;;;;;;3.66;82.26;98390.31;5084863;28;20016;-68
2024/03/27 05:00:32;;;;;;;2.35;2.17;;;;;;;3.55;82.17;98360.50;5084948;28;20055;-67
2024/03/27 05:02:57;;;;;;;6.75;2.30;;;;;;;3.61;82.31;98374.94;5085202;28;20023;-67
2024/03/27 05:05:23;;;;;;;2.05;1.58;;;;;;;3.65;82.40;98386.88;5084556;28;20040;-66
2024/03/27 05:07:48;;;;;;;7.43;2.85;;;;;;;3.65;82.58;98380.91;5084824;28;20028;-68
2024/03/27 05:10:13;;;;;;;3.40;2.05;;;;;;;3.61;82.72;98368.97;5084838;28;20035;-67
2024/03/27 05:12:39;;;;;;;3.28;3.08;;;;;;;3.67;82.48;98377.47;5084481;28;20020;-66
2024/03/27 05:15:08;;;;;;;4.07;2.00;;;;;;;3.67;82.58;98369.75;5083856;28;20016;-67
2024/03/27 05:17:33;;;;;;;2.28;2.00;;;;;;;3.68;82.38;98366.31;5084664;28;20061;-67
2024/03/27 05:19:58;;;;;;;1.40;1.30;;;;;;;3.67;82.41;98369.75;5084715;28;20028;-68
2024/03/27 05:22:27;;;;;;;6.63;3.40;;;;;;;3.71;82.46;98370.53;5084475;28;20024;-68
2024/03/27 05:24:54;;;;;;;6.90;3.55;;;;;;;3.72;82.38;98373.09;5084577;28;20028;-68
2024/03/27 05:27:19;;;;;;;8.60;5.18;;;;;;;3.71;82.58;98360.28;5084484;28;20058;-67
2024/03/27 05:29:44;;;;;;;3.10;2.63;;;;;;;3.79;82.48;98365.31;5066772;28;20024;-67
2024/03/27 05:32:10;;;;;;;2.42;2.28;;;;;;;3.83;82.32;98357.53;5087132;28;20028;-66
2024/03/27 05:34:36;;;;;;;1.90;1.80;;;;;;;3.81;82.25;98354.16;5088714;28;20025;-67
2024/03/27 05:37:01;;;;;;;5.68;1.70;;;;;;;3.81;82.23;98363.56;5088526;28;20031;-65
2024/03/27 05:39:27;;;;;;;4.53;2.28;;;;;;;3.82;82.36;98373.81;5088621;28;20028;-66
2024/03/27 05:41:53;;;;;;;2.13;1.92;;;;;;;3.84;82.34;98359.25;5088809;28;20511;-67
2024/03/27 05:44:18;;;;;;;3.92;2.97;;;;;;;3.88;82.37;98357.50;5088567;28;20021;-66
2024/03/27 05:46:45;;;;;;;8.60;2.90;;;;;;;3.88;82.26;98352.38;5088737;28;20024;-66
2024/03/27 05:49:11;;;;;;;4.53;3.97;;;;;;;3.90;82.18;98353.16;5088653;28;20118;-66
2024/03/27 05:51:38;;;;;;;2.90;2.28;;;;;;;3.91;82.33;98343.75;5088063;28;20020;-66
2024/03/27 05:54:03;;;;;;;2.55;2.40;;;;;;;3.97;82.21;98353.94;5088388;28;20013;-66
2024/03/27 05:56:29;;;;;;;7.60;2.83;;;;;;;4.05;81.86;98343.56;5088727;28;20084;-70
2024/03/27 05:58:54;;;;;;;3.45;3.15;;;;;;;4.04;81.88;98334.16;5087118;28;20070;-69
2024/03/27 06:01:20;;;;;;;7.28;4.68;;;;;;;4.10;81.68;98341.78;5087995;28;20025;-69
2024/03/27 06:03:50;;;;;;;4.40;3.97;;;;;;;4.12;81.79;98352.03;5087324;28;20056;-68
2024/03/27 06:06:15;;;;;;;2.22;2.05;;;;;;;4.15;81.76;98328.84;5069964;28;20046;-68
2024/03/27 06:08:42;;;;;;;6.95;3.92;;;;;;;4.13;81.71;98326.31;5088385;28;20024;-66
2024/03/27 06:11:08;;;;;;;3.67;2.60;;;;;;;4.26;81.18;98351.78;5088168;28;20031;-67
2024/03/27 06:13:33;;;;;;;7.30;2.65;;;;;;;4.21;81.25;98334.75;5087528;28;20107;-66
2024/03/27 06:15:59;;;;;;;4.32;2.63;;;;;;;4.24;81.21;98328.69;5088299;28;20020;-66
2024/03/27 06:18:24;;;;;;;2.83;2.20;;;;;;;4.23;81.00;98324.44;5088106;28;20027;-67
2024/03/27 06:20:49;;;;;;;4.78;3.50;;;;;;;4.31;81.15;98330.28;5087921;28;20028;-66
2024/03/27 06:23:15;;;;;;;12.00;3.53;;;;;;;4.32;81.05;98331.16;5087750;28;20035;-66
2024/03/27 06:25:40;;;;;;;3.03;2.35;;;;;;;4.35;81.17;98336.22;5087826;28;20130;-67
2024/03/27 06:28:06;;;;;;;4.22;3.47;;;;;;;4.41;80.92;98331.00;5087860;28;20025;-66
2024/03/27 06:30:31;;;;;;;8.52;3.45;;;;;;;4.44;80.77;98319.84;5086778;28;20025;-65
2024/03/27 06:32:56;;;;;;;3.35;1.60;;;;;;;4.52;80.63;98301.72;5087680;28;20088;-66
2024/03/27 06:35:22;;;;;;;2.42;2.28;;;;;;;4.52;80.03;98317.94;5087865;28;20029;-67
2024/03/27 06:37:48;;;;;;;6.72;2.28;;;;;;;4.48;80.41;98300.91;5087557;28;20059;-66
2024/03/27 06:40:14;;;;;;;4.93;3.28;;;;;;;4.55;80.01;98317.91;5087562;28;20445;-66
2024/03/27 06:42:40;;;;;;;2.35;1.90;;;;;;;4.53;79.94;98323.94;5069049;28;20086;-65
2024/03/27 06:45:05;;;;;;;4.10;2.88;;;;;;;4.60;79.86;98325.53;5087697;28;20103;-65
2024/03/27 06:47:32;;;;;;;2.30;2.10;;;;;;;4.58;80.04;98317.00;5087500;28;20454;-66
2024/03/27 06:49:58;;;;;;;2.72;2.53;;;;;;;4.54;80.19;98299.94;5087889;28;20108;-66
2024/03/27 06:52:23;;;;;;;2.47;2.33;;;;;;;4.61;79.99;98303.25;5087183;28;20162;-66
2024/03/27 06:54:48;;;;;;;2.58;2.33;;;;;;;4.63;79.89;98309.22;5087291;28;20035;-65
2024/03/27 06:57:17;;;;;;;3.33;3.13;;;;;;;4.67;79.78;98306.56;5086209;28;20029;-66
2024/03/27 06:59:43;;;;;;;1.35;1.00;;;;;;;4.79;79.65;98314.94;5087259;28;20028;-65
2024/03/27 07:02:09;;;;;;;3.63;2.17;;;;;;;4.75;79.62;98306.41;5087587;28;20063;-65
2024/03/27 07:04:34;;;;;;;5.75;2.97;;;;;;;4.75;79.60;98306.41;5087630;28;20463;-66
2024/03/27 07:07:00;;;;;;;3.05;2.15;;;;;;;4.81;79.53;98310.59;5086998;28;20121;-66
2024/03/27 07:09:25;;;;;;;4.63;1.88;;;;;;;4.84;79.12;98313.09;5087480;28;20030;-67
2024/03/27 07:11:51;;;;;;;2.58;2.42;;;;;;;4.86;79.21;98310.53;5087200;28;20103;-66
2024/03/27 07:14:16;;;;;;;5.43;3.78;;;;;;;4.82;79.03;98299.44;5087181;28;20530;-66
2024/03/27 07:16:43;;;;;;;4.60;3.70;;;;;;;4.86;79.52;98316.50;5087328;28;20032;-66
2024/03/27 07:19:11;;;;;;;4.13;2.28;;;;;;;4.93;78.82;98300.09;5087152;28;20024;-65
2024/03/27 07:21:37;;;;;;;7.75;4.13;;;;;;;4.95;78.60;98300.88;5086594;28;20035;-66
2024/03/27 07:24:04;;;;;;;4.03;3.08;;;;;;;5.01;78.83;98311.94;5087170;28;20021;-67
2024/03/27 07:26:31;;;;;;;2.40;1.92;;;;;;;5.09;78.76;98310.06;5086719;28;20029;-67
2024/03/27 07:28:56;;;;;;;5.32;2.78;;;;;;;5.11;78.84;98305.75;5087049;28;20024;-66
2024/03/27 07:31:21;;;;;;;3.22;2.72;;;;;;;5.12;78.66;98280.84;5087076;28;20032;-64
2024/03/27 07:33:47;;;;;;;5.47;3.30;;;;;;;5.19;78.57;98297.88;5068748;28;20025;-66
2024/03/27 07:36:13;;;;;;;11.07;4.35;;;;;;;5.24;78.67;98285.75;5086817;28;20028;-65
2024/03/27 07:38:38;;;;;;;4.18;2.70;;;;;;;5.41;78.76;98300.84;5086707;28;20472;-66
2024/03/27 07:41:04;;;;;;;2.90;1.95;;;;;;;5.53;78.42;98292.00;5086531;28;20028;-65
2024/03/27 07:43:29;;;;;;;3.00;1.67;;;;;;;5.52;77.76;98280.03;5086697;28;20021;-66
2024/03/27 07:45:54;;;;;;;7.85;4.00;;;;;;;5.74;77.52;98294.13;5086500;28;20020;-65
2024/03/27 07:48:20;;;;;;;13.13;4.38;;;;;;;5.85;77.38;98302.44;5086360;28;20085;-65
2024/03/27 07:50:45;;;;;;;5.30;3.28;;;;;;;6.03;77.22;98284.88;5086630;28;20020;-67
2024/03/27 07:53:11;;;;;;;8.45;3.65;;;;;;;6.20;77.00;98280.19;5085633;28;20031;-66
2024/03/27 07:55:36;;;;;;;2.72;2.47;;;;;;;6.39;76.28;98291.78;5085785;28;20090;-65
2024/03/27 07:58:02;;;;;;;10.00;5.07;;;;;;;6.51;76.59;98276.00;5086461;28;20051;-65
2024/03/27 08:00:28;;;;;;;2.55;2.28;;;;;;;6.66;75.46;98279.88;5086192;28;20084;-66
2024/03/27 08:02:53;;;;;;;3.72;2.65;;;;;;;6.74;74.72;98286.59;5086299;28;20024;-65
2024/03/27 08:05:18;;;;;;;7.53;4.57;;;;;;;6.79;74.92;98300.19;5086187;28;20092;-65
2024/03/27 08:07:46;;;;;;;6.68;4.70;;;;;;;7.02;73.54;98275.50;5085770;28;20056;-66
2024/03/27 08:10:13;;;;;;;6.47;3.25;;;;;;;7.16;73.84;98291.44;5086290;28;20229;-66
2024/03/27 08:12:38;;;;;;;5.47;3.30;;;;;;;7.38;72.41;98297.72;5067877;28;20016;-65
2024/03/27 08:15:04;;;;;;;6.10;4.03;;;;;;;7.49;72.38;98279.31;5085935;28;20046;-66
2024/03/27 08:17:31;;;;;;;5.85;3.38;;;;;;;7.77;72.19;98289.66;5086289;28;20150;-66
2024/03/27 08:19:56;;;;;;;3.88;3.45;;;;;;;8.10;71.87;98288.59;5085930;28;20496;-66
2024/03/27 08:22:21;;;;;;;6.07;4.80;;;;;;;8.58;71.93;98288.78;5085775;28;20034;-66
2024/03/27 08:24:47;;;;;;;8.02;3.50;;;;;;;8.90;69.52;98286.81;5085926;28;20063;-66
2024/03/27 08:27:12;;;;;;;3.63;2.70;;;;;;;9.15;68.35;98293.69;5085836;28;20029;-65
2024/03/27 08:29:38;;;;;;;5.43;2.67;;;;;;;9.28;67.18;98275.13;5084420;28;20027;-66
2024/03/27 08:32:03;;;;;;;12.60;3.80;;;;;;;9.44;66.85;98280.56;5085932;28;20028;-67
2024/03/27 08:34:29;;;;;;;6.80;4.13;;;;;;;9.73;66.55;98275.19;5085764;28;20022;-66
2024/03/27 08:36:58;;;;;;;7.93;3.50;;;;;;;9.96;65.55;98273.41;5085451;28;20028;-66
2024/03/27 08:39:25;;;;;;;4.82;3.65;;;;;;;10.19;64.87;98274.22;5085678;28;20032;-66
2024/03/27 08:41:52;;;;;;;4.80;3.75;;;;;;;10.11;62.80;98265.00;5085457;28;20088;-67
2024/03/27 08:44:17;;;;;;;11.82;5.03;;;;;;;10.05;63.03;98262.66;5085551;28;20021;-66
2024/03/27 08:46:43;;;;;;;4.88;2.08;;;;;;;10.34;62.37;98237.25;5085541;28;20016;-66
2024/03/27 08:49:18;;;;;;;6.40;5.03;;;;;;;10.62;62.29;98258.63;5085316;28;20022;-66
2024/03/27 08:51:44;;;;;;;5.82;3.92;;;;;;;11.09;62.44;98267.81;5067286;28;20094;-66
2024/03/27 08:54:12;;;;;;;7.13;4.13;;;;;;;11.36;59.62;98251.88;5085399;28;20026;-66
2024/03/27 08:56:38;;;;;;;6.93;3.35;;;;;;;11.57;59.71;98251.78;5085409;28;20043;-66
2024/03/27 08:59:03;;;;;;;5.50;3.75;;;;;;;11.83;57.87;98257.50;5085311;28;20060;-65
2024/03/27 09:01:29;;;;;;;9.77;4.32;;;;;;;12.12;58.03;98244.84;5085292;28;20025;-66
2024/03/27 09:03:54;;;;;;;5.97;3.53;;;;;;;12.40;56.84;98250.41;5085266;28;20032;-65
2024/03/27 09:06:20;;;;;;;7.18;3.30;;;;;;;12.59;56.30;98245.13;5084824;28;20038;-66
2024/03/27 09:08:45;;;;;;;2.67;1.83;;;;;;;12.36;55.58;98249.72;5085185;28;20024;-65
2024/03/27 09:11:11;;;;;;;7.95;3.30;;;;;;;11.97;55.68;98246.41;5085291;28;20082;-66
2024/03/27 09:13:36;;;;;;;5.93;4.15;;;;;;;11.41;56.29;98254.25;5084993;28;20085;-66
2024/03/27 09:16:03;;;;;;;5.10;3.17;;;;;;;11.04;56.95;98269.75;5067182;28;20052;-67
2024/03/27 09:18:29;;;;;;;4.70;2.92;;;;;;;10.58;57.93;98246.66;5084416;28;20121;-65
2024/03/27 09:20:56;;;;;;;5.78;3.53;;;;;;;10.51;59.35;98259.09;5085265;28;20021;-66
2024/03/27 09:23:22;;;;;;;6.00;4.32;;;;;;;10.61;59.76;98262.97;5084638;28;20040;-66
2024/03/27 09:25:58;;;;;;;3.70;3.33;;;;;;;11.00;59.19;98274.28;5085193;28;20024;-66
2024/03/27 09:28:24;;;;;;;4.38;2.08;;;;;;;11.38;58.51;98267.38;5085231;28;20025;-65
2024/03/27 09:30:49;;;;;;;4.22;3.60;;;;;;;11.85;56.39;98260.03;5084939;28;20154;-66
2024/03/27 09:33:15;;;;;;;8.15;4.25;;;;;;;12.52;56.40;98255.00;5084675;28;20043;-65
2024/03/27 09:35:43;;;;;;;5.22;3.50;;;;;;;13.26;53.38;98264.22;5066752;28;20028;-66
2024/03/27 09:38:09;;;;;;;5.60;3.80;;;;;;;13.56;52.89;98254.84;5084914;28;20021;-66
2024/03/27 09:40:44;;;;;;;3.75;3.35;;;;;;;13.81;52.56;98264.75;5084992;28;20028;-67
2024/03/27 09:43:13;;;;;;;4.40;2.65;;;;;;;13.68;51.26;98246.34;5077015;28;20025;-67
2024/03/27 09:45:40;;;;;;;4.35;2.95;;;;;;;12.93;52.67;98254.69;5066811;28;20048;-67
2024/03/27 09:48:07;;;;;;;6.55;2.47;;;;;;;12.25;52.99;98263.28;5084834;28;20050;-66
2024/03/27 09:50:33;;;;;;;4.57;3.45;;;;;;;11.76;54.68;98261.28;5084708;28;20103;-67
2024/03/27 09:53:00;;;;;;;12.88;2.92;;;;;;;11.40;55.29;98263.81;5084626;28;20062;-65
2024/03/27 09:55:31;;;;;;;4.65;3.22;;;;;;;11.09;55.75;98261.75;5084768;28;20076;-66
2024/03/27 09:58:03;;;;;;;2.97;2.50;;;;;;;10.93;55.93;98262.44;5084564;28;20024;-66
2024/03/27 10:00:28;;;;;;;3.90;3.22;;;;;;;10.81;56.36;98266.44;5084754;28;20021;-66
2024/03/27 10:02:54;;;;;;;3.35;2.35;;;;;;;10.75;57.02;98245.97;5084454;28;20035;-66
2024/03/27 10:05:23;;;;;;;5.00;3.53;;;;;;;10.75;57.11;98266.72;5084512;28;20084;-66
2024/03/27 10:07:49;;;;;;;11.15;3.90;;;;;;;10.79;57.08;98270.84;5084330;28;20025;-66
2024/03/27 10:10:15;;;;;;;4.03;2.75;;;;;;;10.72;56.80;98261.66;5084668;28;20029;-65
2024/03/27 10:12:40;;;;;;;3.97;3.20;;;;;;;10.80;57.21;98256.13;5084745;28;20080;-66
2024/03/27 10:15:07;;;;;;;2.83;2.55;;;;;;;11.01;57.19;98254.31;5084399;28;20025;-66
2024/03/27 10:17:32;;;;;;;6.57;3.50;;;;;;;11.39;57.05;98254.31;5085809;28;20042;-66
2024/03/27 10:19:57;;;;;;;5.63;2.75;;;;;;;12.05;55.76;98246.03;5088059;28;20131;-65
2024/03/27 10:22:23;;;;;;;9.15;3.55;;;;;;;12.85;54.64;98250.72;5087772;28;20072;-66
2024/03/27 10:24:48;;;;;;;4.97;3.22;;;;;;;13.19;53.27;98240.28;5086584;28;20024;-66
2024/03/27 10:27:14;;;;;;;7.07;2.45;;;;;;;13.53;52.15;98245.41;5087861;28;20021;-67
2024/03/27 10:29:39;;;;;;;2.70;2.50;;;;;;;13.79;51.05;98240.50;5069756;28;20107;-65
2024/03/27 10:32:04;;;;;;;2.95;2.65;;;;;;;13.90;50.35;98244.28;5087561;28;20024;-65
2024/03/27 10:34:30;;;;;;;4.60;2.83;;;;;;;14.13;50.62;98248.19;5087727;28;20081;-66
2024/03/27 10:36:56;;;;;;;4.07;2.42;;;;;;;14.35;50.03;98246.91;5069387;28;20035;-66
2024/03/27 10:39:26;;;;;;;4.93;2.85;;;;;;;14.34;48.91;98237.41;5069788;28;20016;-66
2024/03/27 10:41:55;;;;;;;2.20;1.77;;;;;;;14.29;48.69;98226.41;5087506;28;20016;-66
2024/03/27 10:44:21;;;;;;;4.65;2.85;;;;;;;14.26;48.81;98245.69;5087584;28;20095;-65
2024/03/27 10:46:52;;;;;;;3.83;2.80;;;;;;;14.28;49.39;98241.22;5087970;28;20032;-65
2024/03/27 10:49:19;;;;;;;2.80;1.95;;;;;;;14.36;50.26;98236.38;5087571;28;20048;-65
2024/03/27 10:51:45;;;;;;;4.22;2.28;;;;;;;14.71;48.09;98234.38;5087262;28;20112;-64
2024/03/27 10:54:11;;;;;;;3.00;2.70;;;;;;;14.79;47.98;98239.13;5087250;28;20028;-65
2024/03/27 10:56:37;;;;;;;3.53;2.40;;;;;;;14.91;48.77;98240.16;5087324;28;20028;-66
2024/03/27 10:59:03;;;;;;;3.15;2.45;;;;;;;14.94;46.69;98222.53;5068930;28;20243;-65
2024/03/27 11:01:28;;;;;;;3.60;2.53;;;;;;;14.59;45.50;98239.41;5085762;28;20027;-66
2024/03/27 11:03:54;;;;;;;1.63;1.52;;;;;;;14.13;47.08;98243.81;5087089;28;20024;-66
2024/03/27 11:06:19;;;;;;;2.97;2.28;;;;;;;13.87;47.71;98240.94;5086783;28;20056;-66
2024/03/27 11:08:47;;;;;;;3.70;2.67;;;;;;;13.81;48.73;98243.03;5086998;28;20024;-64
2024/03/27 11:11:14;;;;;;;4.00;3.03;;;;;;;13.86;47.73;98247.09;5087174;28;20055;-66
2024/03/27 11:13:46;;;;;;;2.70;2.10;;;;;;;13.72;47.52;98247.00;5087200;28;20020;-66
2024/03/27 11:16:13;;;;;;;2.17;1.63;;;;;;;13.96;48.23;98239.53;5069108;28;20325;-66
2024/03/27 11:18:42;;;;;;;2.67;1.98;;;;;;;14.25;46.84;98231.81;5086903;28;20024;-66
2024/03/27 11:21:07;;;;;;;3.47;2.40;;;;;;;14.20;47.60;98243.44;5087057;28;20033;-66
2024/03/27 11:23:37;;;;;;;4.05;2.67;;;;;;;14.08;46.88;98240.63;5085388;28;20028;-65
2024/03/27 11:26:03;;;;;;;2.97;2.30;;;;;;;14.05;47.23;98243.41;5086814;28;20031;-66
2024/03/27 11:28:28;;;;;;;4.07;2.67;;;;;;;13.97;46.63;98240.38;5086892;28;20016;-66
2024/03/27 11:30:57;;;;;;;5.22;2.08;;;;;;;13.76;46.97;98238.09;5086679;28;20031;-65
2024/03/27 11:33:24;;;;;;;3.30;2.33;;;;;;;13.60;47.93;98243.31;5086703;28;20025;-65